sensor_id;sensor_type;location;lat;lon;timestamp;P1;durP1;ratioP1;P2;durP2;ratioP2
15488;SDS011;7846;48.830;9.116;2022-08-24T00:01:08;6.97;;;3.20;;
15488;SDS011;7846;48.830;9.116;2022-08-24T00:03:36;3.93;;;2.93;;
15488;SDS011;7846;48.830;9.116;2022-08-24T00:06:03;4.20;;;2.90;;
15488;SDS011;7846;48.830;9.116;2022-08-24T00:08:29;4.27;;;3.20;;
15488;SDS011;7846;48.830;9.116;2022-08-24T00:10:55;6.00;;;3.23;;
15488;SDS011;7846;48.830;9.116;2022-08-24T00:13:20;6.40;;;3.17;;
15488;SDS011;7846;48.830;9.116;2022-08-24T00:15:48;4.30;;;3.07;;
15488;SDS011;7846;48.830;9.116;2022-08-24T00:18:13;3.30;;;3.00;;
15488;SDS011;7846;48.830;9.116;2022-08-24T00:20:42;4.03;;;3.00;;
15488;SDS011;7846;48.830;9.116;2022-08-24T00:23:07;3.17;;;2.87;;
15488;SDS011;7846;48.830;9.116;2022-08-24T00:25:33;4.50;;;2.83;;
15488;SDS011;7846;48.830;9.116;2022-08-24T00:27:58;4.30;;;3.10;;
15488;SDS011;7846;48.830;9.116;2022-08-24T00:30:25;4.10;;;3.20;;
15488;SDS011;7846;48.830;9.116;2022-08-24T00:32:52;3.97;;;2.70;;
15488;SDS011;7846;48.830;9.116;2022-08-24T00:35:18;4.13;;;2.80;;
15488;SDS011;7846;48.830;9.116;2022-08-24T00:37:47;4.27;;;2.90;;
15488;SDS011;7846;48.830;9.116;2022-08-24T00:40:20;3.50;;;2.70;;
15488;SDS011;7846;48.830;9.116;2022-08-24T00:42:54;3.90;;;2.83;;
15488;SDS011;7846;48.830;9.116;2022-08-24T00:45:20;4.10;;;3.03;;
15488;SDS011;7846;48.830;9.116;2022-08-24T00:47:51;3.30;;;3.00;;
15488;SDS011;7846;48.830;9.116;2022-08-24T00:50:43;3.30;;;2.83;;
15488;SDS011;7846;48.830;9.116;2022-08-24T00:53:10;3.40;;;3.10;;
15488;SDS011;7846;48.830;9.116;2022-08-24T00:55:41;4.27;;;2.97;;
15488;SDS011;7846;48.830;9.116;2022-08-24T00:58:15;4.10;;;3.00;;
15488;SDS011;7846;48.830;9.116;2022-08-24T01:00:45;5.63;;;3.17;;
15488;SDS011;7846;48.830;9.116;2022-08-24T01:03:13;4.27;;;2.70;;
15488;SDS011;7846;48.830;9.116;2022-08-24T01:05:39;4.00;;;2.80;;
15488;SDS011;7846;48.830;9.116;2022-08-24T01:08:06;3.60;;;3.20;;
15488;SDS011;7846;48.830;9.116;2022-08-24T01:10:34;3.47;;;3.00;;
15488;SDS011;7846;48.830;9.116;2022-08-24T01:13:05;4.60;;;2.83;;
15488;SDS011;7846;48.830;9.116;2022-08-24T01:15:33;3.97;;;3.07;;
15488;SDS011;7846;48.830;9.116;2022-08-24T01:18:01;4.10;;;3.00;;
15488;SDS011;7846;48.830;9.116;2022-08-24T01:20:48;4.17;;;2.93;;
15488;SDS011;7846;48.830;9.116;2022-08-24T01:26:04;3.53;;;3.10;;
15488;SDS011;7846;48.830;9.116;2022-08-24T01:28:31;3.43;;;3.10;;
15488;SDS011;7846;48.830;9.116;2022-08-24T01:30:58;3.53;;;3.20;;
15488;SDS011;7846;48.830;9.116;2022-08-24T01:33:29;6.30;;;3.77;;
15488;SDS011;7846;48.830;9.116;2022-08-24T01:35:57;6.20;;;3.90;;
15488;SDS011;7846;48.830;9.116;2022-08-24T01:38:25;4.43;;;3.47;;
15488;SDS011;7846;48.830;9.116;2022-08-24T01:40:55;5.23;;;3.93;;
15488;SDS011;7846;48.830;9.116;2022-08-24T01:43:25;5.63;;;4.27;;
15488;SDS011;7846;48.830;9.116;2022-08-24T01:45:50;4.73;;;3.87;;
15488;SDS011;7846;48.830;9.116;2022-08-24T01:48:15;6.90;;;3.87;;
15488;SDS011;7846;48.830;9.116;2022-08-24T01:50:42;5.60;;;3.73;;
15488;SDS011;7846;48.830;9.116;2022-08-24T01:53:07;4.43;;;3.70;;
15488;SDS011;7846;48.830;9.116;2022-08-24T01:58:11;5.60;;;3.67;;
15488;SDS011;7846;48.830;9.116;2022-08-24T02:00:38;4.97;;;4.07;;
15488;SDS011;7846;48.830;9.116;2022-08-24T02:03:07;5.10;;;3.70;;
15488;SDS011;7846;48.830;9.116;2022-08-24T02:05:36;7.20;;;4.03;;
15488;SDS011;7846;48.830;9.116;2022-08-24T02:08:04;4.43;;;4.07;;
15488;SDS011;7846;48.830;9.116;2022-08-24T02:10:30;4.70;;;4.17;;
15488;SDS011;7846;48.830;9.116;2022-08-24T02:12:56;4.57;;;3.87;;
15488;SDS011;7846;48.830;9.116;2022-08-24T02:15:33;5.07;;;4.10;;
15488;SDS011;7846;48.830;9.116;2022-08-24T02:18:04;5.57;;;4.17;;
15488;SDS011;7846;48.830;9.116;2022-08-24T02:20:31;5.03;;;4.30;;
15488;SDS011;7846;48.830;9.116;2022-08-24T02:23:00;4.87;;;4.33;;
15488;SDS011;7846;48.830;9.116;2022-08-24T02:25:25;6.50;;;4.53;;
15488;SDS011;7846;48.830;9.116;2022-08-24T02:27:55;5.53;;;4.40;;
15488;SDS011;7846;48.830;9.116;2022-08-24T02:30:26;6.97;;;4.90;;
15488;SDS011;7846;48.830;9.116;2022-08-24T02:32:52;5.63;;;4.63;;
15488;SDS011;7846;48.830;9.116;2022-08-24T02:35:18;6.97;;;4.77;;
15488;SDS011;7846;48.830;9.116;2022-08-24T02:37:44;5.53;;;4.60;;
15488;SDS011;7846;48.830;9.116;2022-08-24T02:40:09;5.57;;;4.80;;
15488;SDS011;7846;48.830;9.116;2022-08-24T02:42:36;6.50;;;4.77;;
15488;SDS011;7846;48.830;9.116;2022-08-24T02:45:04;5.40;;;4.90;;
15488;SDS011;7846;48.830;9.116;2022-08-24T02:47:33;7.60;;;5.10;;
15488;SDS011;7846;48.830;9.116;2022-08-24T02:49:59;6.10;;;5.43;;
15488;SDS011;7846;48.830;9.116;2022-08-24T02:52:27;7.70;;;5.20;;
15488;SDS011;7846;48.830;9.116;2022-08-24T02:54:54;6.20;;;5.40;;
15488;SDS011;7846;48.830;9.116;2022-08-24T03:00:44;6.93;;;5.40;;
15488;SDS011;7846;48.830;9.116;2022-08-24T03:03:11;6.27;;;5.33;;
15488;SDS011;7846;48.830;9.116;2022-08-24T03:05:37;6.60;;;5.80;;
15488;SDS011;7846;48.830;9.116;2022-08-24T03:08:03;6.03;;;5.37;;
15488;SDS011;7846;48.830;9.116;2022-08-24T03:10:30;6.47;;;5.23;;
15488;SDS011;7846;48.830;9.116;2022-08-24T03:12:56;6.90;;;5.53;;
15488;SDS011;7846;48.830;9.116;2022-08-24T03:15:23;6.30;;;5.70;;
15488;SDS011;7846;48.830;9.116;2022-08-24T03:17:49;6.53;;;5.90;;
15488;SDS011;7846;48.830;9.116;2022-08-24T03:20:16;7.77;;;5.33;;
15488;SDS011;7846;48.830;9.116;2022-08-24T03:22:45;6.20;;;5.60;;
15488;SDS011;7846;48.830;9.116;2022-08-24T03:25:11;6.43;;;5.57;;
15488;SDS011;7846;48.830;9.116;2022-08-24T03:27:39;6.93;;;5.50;;
15488;SDS011;7846;48.830;9.116;2022-08-24T03:30:05;6.20;;;5.50;;
15488;SDS011;7846;48.830;9.116;2022-08-24T03:32:32;6.67;;;5.87;;
15488;SDS011;7846;48.830;9.116;2022-08-24T03:34:58;6.67;;;5.47;;
15488;SDS011;7846;48.830;9.116;2022-08-24T03:37:24;6.63;;;5.83;;
15488;SDS011;7846;48.830;9.116;2022-08-24T03:39:49;6.87;;;5.80;;
15488;SDS011;7846;48.830;9.116;2022-08-24T03:42:15;6.13;;;5.40;;
15488;SDS011;7846;48.830;9.116;2022-08-24T03:44:41;7.57;;;5.50;;
15488;SDS011;7846;48.830;9.116;2022-08-24T03:47:07;7.87;;;5.30;;
15488;SDS011;7846;48.830;9.116;2022-08-24T03:49:35;7.33;;;5.17;;
15488;SDS011;7846;48.830;9.116;2022-08-24T03:52:01;5.70;;;5.20;;
15488;SDS011;7846;48.830;9.116;2022-08-24T03:54:28;5.90;;;5.30;;
15488;SDS011;7846;48.830;9.116;2022-08-24T03:56:54;6.40;;;5.20;;
15488;SDS011;7846;48.830;9.116;2022-08-24T03:59:24;8.17;;;5.33;;
15488;SDS011;7846;48.830;9.116;2022-08-24T04:01:50;6.27;;;5.50;;
15488;SDS011;7846;48.830;9.116;2022-08-24T04:04:15;6.13;;;5.53;;
15488;SDS011;7846;48.830;9.116;2022-08-24T04:06:41;6.47;;;5.70;;
15488;SDS011;7846;48.830;9.116;2022-08-24T04:09:09;5.30;;;4.80;;
15488;SDS011;7846;48.830;9.116;2022-08-24T04:11:36;6.67;;;5.60;;
15488;SDS011;7846;48.830;9.116;2022-08-24T04:14:03;6.27;;;5.50;;
15488;SDS011;7846;48.830;9.116;2022-08-24T04:16:28;8.77;;;5.27;;
15488;SDS011;7846;48.830;9.116;2022-08-24T04:18:56;6.20;;;4.83;;
15488;SDS011;7846;48.830;9.116;2022-08-24T04:21:29;5.60;;;4.57;;
15488;SDS011;7846;48.830;9.116;2022-08-24T04:24:04;4.83;;;4.30;;
15488;SDS011;7846;48.830;9.116;2022-08-24T04:26:31;5.57;;;4.50;;
15488;SDS011;7846;48.830;9.116;2022-08-24T04:28:57;6.27;;;4.70;;
15488;SDS011;7846;48.830;9.116;2022-08-24T04:31:23;5.73;;;4.40;;
15488;SDS011;7846;48.830;9.116;2022-08-24T04:33:49;4.80;;;4.10;;
15488;SDS011;7846;48.830;9.116;2022-08-24T04:36:16;5.90;;;4.40;;
15488;SDS011;7846;48.830;9.116;2022-08-24T04:38:46;4.23;;;3.80;;
15488;SDS011;7846;48.830;9.116;2022-08-24T04:41:14;4.90;;;4.40;;
15488;SDS011;7846;48.830;9.116;2022-08-24T04:43:46;5.77;;;3.90;;
15488;SDS011;7846;48.830;9.116;2022-08-24T04:46:13;4.60;;;3.73;;
15488;SDS011;7846;48.830;9.116;2022-08-24T04:48:43;6.83;;;3.97;;
15488;SDS011;7846;48.830;9.116;2022-08-24T04:51:10;6.83;;;4.40;;
15488;SDS011;7846;48.830;9.116;2022-08-24T04:53:39;5.43;;;4.10;;
15488;SDS011;7846;48.830;9.116;2022-08-24T04:56:11;5.10;;;3.97;;
15488;SDS011;7846;48.830;9.116;2022-08-24T04:58:39;5.80;;;4.30;;
15488;SDS011;7846;48.830;9.116;2022-08-24T05:01:06;6.53;;;4.43;;
15488;SDS011;7846;48.830;9.116;2022-08-24T05:03:33;5.93;;;4.60;;
15488;SDS011;7846;48.830;9.116;2022-08-24T05:05:58;6.67;;;4.63;;
15488;SDS011;7846;48.830;9.116;2022-08-24T05:08:24;5.23;;;4.50;;
15488;SDS011;7846;48.830;9.116;2022-08-24T05:10:49;6.33;;;4.87;;
15488;SDS011;7846;48.830;9.116;2022-08-24T05:13:15;6.47;;;4.83;;
15488;SDS011;7846;48.830;9.116;2022-08-24T05:15:43;8.17;;;5.10;;
15488;SDS011;7846;48.830;9.116;2022-08-24T05:18:11;7.80;;;5.20;;
15488;SDS011;7846;48.830;9.116;2022-08-24T05:20:40;7.23;;;4.97;;
15488;SDS011;7846;48.830;9.116;2022-08-24T05:23:07;7.27;;;5.53;;
15488;SDS011;7846;48.830;9.116;2022-08-24T05:25:33;8.43;;;5.00;;
15488;SDS011;7846;48.830;9.116;2022-08-24T05:27:58;8.73;;;4.97;;
15488;SDS011;7846;48.830;9.116;2022-08-24T05:30:24;5.77;;;4.90;;
15488;SDS011;7846;48.830;9.116;2022-08-24T05:32:51;5.10;;;4.60;;
15488;SDS011;7846;48.830;9.116;2022-08-24T05:35:16;7.30;;;4.50;;
15488;SDS011;7846;48.830;9.116;2022-08-24T05:37:42;11.47;;;4.10;;
15488;SDS011;7846;48.830;9.116;2022-08-24T05:40:09;8.77;;;4.47;;
15488;SDS011;7846;48.830;9.116;2022-08-24T05:42:37;7.00;;;4.60;;
15488;SDS011;7846;48.830;9.116;2022-08-24T05:45:03;7.90;;;5.00;;
15488;SDS011;7846;48.830;9.116;2022-08-24T05:47:30;5.60;;;4.60;;
15488;SDS011;7846;48.830;9.116;2022-08-24T05:49:57;9.03;;;4.60;;
15488;SDS011;7846;48.830;9.116;2022-08-24T05:52:22;5.20;;;4.73;;
15488;SDS011;7846;48.830;9.116;2022-08-24T05:54:53;8.07;;;4.53;;
15488;SDS011;7846;48.830;9.116;2022-08-24T05:57:21;8.33;;;4.50;;
15488;SDS011;7846;48.830;9.116;2022-08-24T05:59:47;5.27;;;4.73;;
15488;SDS011;7846;48.830;9.116;2022-08-24T06:02:13;7.10;;;4.33;;
15488;SDS011;7846;48.830;9.116;2022-08-24T06:04:39;9.67;;;4.50;;
15488;SDS011;7846;48.830;9.116;2022-08-24T06:07:05;5.90;;;4.57;;
15488;SDS011;7846;48.830;9.116;2022-08-24T06:09:35;7.60;;;4.50;;
15488;SDS011;7846;48.830;9.116;2022-08-24T06:12:01;8.77;;;4.70;;
15488;SDS011;7846;48.830;9.116;2022-08-24T06:14:27;10.37;;;4.90;;
15488;SDS011;7846;48.830;9.116;2022-08-24T06:16:53;9.13;;;4.93;;
15488;SDS011;7846;48.830;9.116;2022-08-24T06:19:19;6.60;;;5.10;;
15488;SDS011;7846;48.830;9.116;2022-08-24T06:21:46;10.03;;;4.47;;
15488;SDS011;7846;48.830;9.116;2022-08-24T06:24:14;7.93;;;4.43;;
15488;SDS011;7846;48.830;9.116;2022-08-24T06:26:41;11.73;;;4.67;;
15488;SDS011;7846;48.830;9.116;2022-08-24T06:29:27;9.63;;;4.30;;
15488;SDS011;7846;48.830;9.116;2022-08-24T06:31:53;11.40;;;4.60;;
15488;SDS011;7846;48.830;9.116;2022-08-24T06:34:18;8.43;;;4.37;;
15488;SDS011;7846;48.830;9.116;2022-08-24T06:36:45;9.13;;;4.10;;
15488;SDS011;7846;48.830;9.116;2022-08-24T06:39:12;6.20;;;4.20;;
15488;SDS011;7846;48.830;9.116;2022-08-24T06:41:38;8.50;;;4.73;;
15488;SDS011;7846;48.830;9.116;2022-08-24T06:44:04;9.50;;;4.23;;
15488;SDS011;7846;48.830;9.116;2022-08-24T06:46:30;10.57;;;4.70;;
15488;SDS011;7846;48.830;9.116;2022-08-24T06:48:56;15.90;;;7.53;;
15488;SDS011;7846;48.830;9.116;2022-08-24T06:51:22;18.57;;;7.10;;
15488;SDS011;7846;48.830;9.116;2022-08-24T06:53:49;43.03;;;17.67;;
15488;SDS011;7846;48.830;9.116;2022-08-24T06:56:17;17.37;;;8.93;;
15488;SDS011;7846;48.830;9.116;2022-08-24T06:58:43;19.47;;;8.90;;
15488;SDS011;7846;48.830;9.116;2022-08-24T07:01:11;7.90;;;4.63;;
15488;SDS011;7846;48.830;9.116;2022-08-24T07:03:41;9.10;;;4.90;;
15488;SDS011;7846;48.830;9.116;2022-08-24T07:06:07;31.90;;;14.50;;
15488;SDS011;7846;48.830;9.116;2022-08-24T07:08:34;9.53;;;4.13;;
15488;SDS011;7846;48.830;9.116;2022-08-24T07:11:02;6.90;;;4.10;;
15488;SDS011;7846;48.830;9.116;2022-08-24T07:13:28;12.63;;;5.57;;
15488;SDS011;7846;48.830;9.116;2022-08-24T07:15:55;8.53;;;5.27;;
15488;SDS011;7846;48.830;9.116;2022-08-24T07:18:22;9.93;;;5.83;;
15488;SDS011;7846;48.830;9.116;2022-08-24T07:20:48;6.90;;;3.70;;
15488;SDS011;7846;48.830;9.116;2022-08-24T07:23:14;5.10;;;3.53;;
15488;SDS011;7846;48.830;9.116;2022-08-24T07:25:43;6.47;;;3.77;;
15488;SDS011;7846;48.830;9.116;2022-08-24T07:28:10;6.77;;;3.80;;
15488;SDS011;7846;48.830;9.116;2022-08-24T07:30:36;8.00;;;3.97;;
15488;SDS011;7846;48.830;9.116;2022-08-24T07:33:05;6.20;;;3.60;;
15488;SDS011;7846;48.830;9.116;2022-08-24T07:35:34;7.53;;;3.83;;
15488;SDS011;7846;48.830;9.116;2022-08-24T07:38:01;9.37;;;3.60;;
15488;SDS011;7846;48.830;9.116;2022-08-24T07:40:31;7.23;;;3.43;;
15488;SDS011;7846;48.830;9.116;2022-08-24T07:42:57;6.90;;;3.27;;
15488;SDS011;7846;48.830;9.116;2022-08-24T07:45:23;4.50;;;3.10;;
15488;SDS011;7846;48.830;9.116;2022-08-24T07:47:50;5.23;;;3.00;;
15488;SDS011;7846;48.830;9.116;2022-08-24T07:50:20;4.80;;;2.93;;
15488;SDS011;7846;48.830;9.116;2022-08-24T07:52:46;4.83;;;2.80;;
15488;SDS011;7846;48.830;9.116;2022-08-24T07:55:13;4.90;;;2.90;;
15488;SDS011;7846;48.830;9.116;2022-08-24T07:57:38;5.47;;;2.97;;
15488;SDS011;7846;48.830;9.116;2022-08-24T08:00:05;5.43;;;3.40;;
15488;SDS011;7846;48.830;9.116;2022-08-24T08:02:32;5.90;;;3.23;;
15488;SDS011;7846;48.830;9.116;2022-08-24T08:04:58;4.50;;;3.00;;
15488;SDS011;7846;48.830;9.116;2022-08-24T08:07:24;5.10;;;3.47;;
15488;SDS011;7846;48.830;9.116;2022-08-24T08:09:49;6.43;;;3.10;;
15488;SDS011;7846;48.830;9.116;2022-08-24T08:12:15;6.40;;;3.30;;
15488;SDS011;7846;48.830;9.116;2022-08-24T08:14:40;5.27;;;2.83;;
15488;SDS011;7846;48.830;9.116;2022-08-24T08:17:07;4.33;;;2.83;;
15488;SDS011;7846;48.830;9.116;2022-08-24T08:19:33;6.07;;;2.80;;
15488;SDS011;7846;48.830;9.116;2022-08-24T08:21:58;3.77;;;2.10;;
15488;SDS011;7846;48.830;9.116;2022-08-24T08:24:43;4.00;;;2.07;;
15488;SDS011;7846;48.830;9.116;2022-08-24T08:27:12;3.57;;;2.00;;
15488;SDS011;7846;48.830;9.116;2022-08-24T08:29:40;4.37;;;1.90;;
15488;SDS011;7846;48.830;9.116;2022-08-24T08:32:07;2.50;;;2.10;;
15488;SDS011;7846;48.830;9.116;2022-08-24T08:34:34;3.10;;;1.93;;
15488;SDS011;7846;48.830;9.116;2022-08-24T08:37:00;4.40;;;2.10;;
15488;SDS011;7846;48.830;9.116;2022-08-24T08:39:26;3.83;;;2.00;;
15488;SDS011;7846;48.830;9.116;2022-08-24T08:41:55;4.23;;;2.00;;
15488;SDS011;7846;48.830;9.116;2022-08-24T08:44:54;2.57;;;2.00;;
15488;SDS011;7846;48.830;9.116;2022-08-24T08:47:35;2.70;;;1.67;;
15488;SDS011;7846;48.830;9.116;2022-08-24T09:10:53;1.60;;;1.50;;
15488;SDS011;7846;48.830;9.116;2022-08-24T09:24:48;2.03;;;1.40;;
15488;SDS011;7846;48.830;9.116;2022-08-24T09:27:34;1.57;;;1.47;;
15488;SDS011;7846;48.830;9.116;2022-08-24T09:30:12;2.77;;;1.40;;
15488;SDS011;7846;48.830;9.116;2022-08-24T09:36:05;1.53;;;1.30;;
15488;SDS011;7846;48.830;9.116;2022-08-24T09:38:40;1.53;;;1.43;;
15488;SDS011;7846;48.830;9.116;2022-08-24T09:41:17;3.93;;;1.53;;
15488;SDS011;7846;48.830;9.116;2022-08-24T09:55:35;1.57;;;1.47;;
15488;SDS011;7846;48.830;9.116;2022-08-24T10:04:06;1.93;;;1.40;;
15488;SDS011;7846;48.830;9.116;2022-08-24T10:09:52;4.70;;;1.40;;
15488;SDS011;7846;48.830;9.116;2022-08-24T10:15:28;1.47;;;1.40;;
15488;SDS011;7846;48.830;9.116;2022-08-24T10:21:04;1.20;;;1.20;;
15488;SDS011;7846;48.830;9.116;2022-08-24T10:23:43;1.60;;;1.50;;
15488;SDS011;7846;48.830;9.116;2022-08-24T10:32:06;1.43;;;1.37;;
15488;SDS011;7846;48.830;9.116;2022-08-24T10:34:48;1.40;;;1.30;;
15488;SDS011;7846;48.830;9.116;2022-08-24T10:37:31;1.80;;;1.40;;
15488;SDS011;7846;48.830;9.116;2022-08-24T10:40:44;1.37;;;1.30;;
15488;SDS011;7846;48.830;9.116;2022-08-24T10:54:41;3.97;;;1.40;;
15488;SDS011;7846;48.830;9.116;2022-08-24T10:57:23;2.03;;;1.40;;
15488;SDS011;7846;48.830;9.116;2022-08-24T11:02:41;1.20;;;1.10;;
15488;SDS011;7846;48.830;9.116;2022-08-24T11:05:09;1.30;;;1.20;;
15488;SDS011;7846;48.830;9.116;2022-08-24T11:10:33;1.70;;;1.40;;
15488;SDS011;7846;48.830;9.116;2022-08-24T11:13:14;2.10;;;1.30;;
15488;SDS011;7846;48.830;9.116;2022-08-24T11:15:47;2.30;;;1.30;;
15488;SDS011;7846;48.830;9.116;2022-08-24T11:18:17;2.10;;;1.50;;
15488;SDS011;7846;48.830;9.116;2022-08-24T11:20:44;2.20;;;1.30;;
15488;SDS011;7846;48.830;9.116;2022-08-24T11:23:22;1.40;;;1.30;;
15488;SDS011;7846;48.830;9.116;2022-08-24T11:28:36;2.47;;;1.43;;
15488;SDS011;7846;48.830;9.116;2022-08-24T11:31:08;1.43;;;1.33;;
15488;SDS011;7846;48.830;9.116;2022-08-24T11:33:45;1.37;;;1.30;;
15488;SDS011;7846;48.830;9.116;2022-08-24T11:36:14;1.60;;;1.30;;
15488;SDS011;7846;48.830;9.116;2022-08-24T11:38:43;2.63;;;1.47;;
15488;SDS011;7846;48.830;9.116;2022-08-24T11:41:11;1.83;;;1.37;;
15488;SDS011;7846;48.830;9.116;2022-08-24T11:49:30;2.67;;;1.43;;
15488;SDS011;7846;48.830;9.116;2022-08-24T11:52:10;2.47;;;1.20;;
15488;SDS011;7846;48.830;9.116;2022-08-24T11:57:33;1.57;;;1.30;;
15488;SDS011;7846;48.830;9.116;2022-08-24T12:00:06;1.30;;;1.20;;
15488;SDS011;7846;48.830;9.116;2022-08-24T12:05:33;1.30;;;1.20;;
15488;SDS011;7846;48.830;9.116;2022-08-24T12:16:16;1.60;;;1.30;;
15488;SDS011;7846;48.830;9.116;2022-08-24T12:18:57;1.77;;;1.60;;
15488;SDS011;7846;48.830;9.116;2022-08-24T12:21:27;1.20;;;1.20;;
15488;SDS011;7846;48.830;9.116;2022-08-24T12:24:08;1.20;;;1.17;;
15488;SDS011;7846;48.830;9.116;2022-08-24T12:26:49;1.57;;;1.47;;
15488;SDS011;7846;48.830;9.116;2022-08-24T12:34:45;2.73;;;1.50;;
15488;SDS011;7846;48.830;9.116;2022-08-24T12:40:20;1.57;;;1.27;;
15488;SDS011;7846;48.830;9.116;2022-08-24T12:43:00;2.10;;;1.43;;
15488;SDS011;7846;48.830;9.116;2022-08-24T12:45:31;1.93;;;1.17;;
15488;SDS011;7846;48.830;9.116;2022-08-24T12:58:54;1.87;;;1.20;;
15488;SDS011;7846;48.830;9.116;2022-08-24T13:01:24;1.53;;;1.07;;
15488;SDS011;7846;48.830;9.116;2022-08-24T13:04:53;1.70;;;1.00;;
15488;SDS011;7846;48.830;9.116;2022-08-24T13:07:10;1.80;;;0.90;;
15488;SDS011;7846;48.830;9.116;2022-08-24T13:15:24;1.10;;;1.10;;
15488;SDS011;7846;48.830;9.116;2022-08-24T13:36:04;1.10;;;1.10;;
15488;SDS011;7846;48.830;9.116;2022-08-24T13:41:03;1.00;;;0.90;;
15488;SDS011;7846;48.830;9.116;2022-08-24T13:49:31;1.53;;;1.00;;
15488;SDS011;7846;48.830;9.116;2022-08-24T13:52:24;1.20;;;0.97;;
15488;SDS011;7846;48.830;9.116;2022-08-24T13:55:44;1.20;;;1.10;;
15488;SDS011;7846;48.830;9.116;2022-08-24T14:01:01;1.97;;;1.20;;
15488;SDS011;7846;48.830;9.116;2022-08-24T14:03:51;3.13;;;1.10;;
15488;SDS011;7846;48.830;9.116;2022-08-24T14:06:34;2.23;;;1.10;;
15488;SDS011;7846;48.830;9.116;2022-08-24T14:09:14;2.20;;;1.10;;
15488;SDS011;7846;48.830;9.116;2022-08-24T14:17:20;1.00;;;1.00;;
15488;SDS011;7846;48.830;9.116;2022-08-24T14:34:34;1.10;;;1.10;;
15488;SDS011;7846;48.830;9.116;2022-08-24T14:42:42;1.30;;;1.10;;
15488;SDS011;7846;48.830;9.116;2022-08-24T14:45:33;1.87;;;1.00;;
15488;SDS011;7846;48.830;9.116;2022-08-24T14:48:22;1.17;;;1.10;;
15488;SDS011;7846;48.830;9.116;2022-08-24T14:54:15;1.60;;;1.00;;
15488;SDS011;7846;48.830;9.116;2022-08-24T14:56:56;1.73;;;1.27;;
15488;SDS011;7846;48.830;9.116;2022-08-24T15:05:25;1.93;;;1.20;;
15488;SDS011;7846;48.830;9.116;2022-08-24T15:08:01;1.73;;;1.10;;
15488;SDS011;7846;48.830;9.116;2022-08-24T15:10:35;1.20;;;1.10;;
15488;SDS011;7846;48.830;9.116;2022-08-24T15:13:07;1.63;;;1.20;;
15488;SDS011;7846;48.830;9.116;2022-08-24T15:15:49;1.23;;;1.23;;
15488;SDS011;7846;48.830;9.116;2022-08-24T15:21:19;2.87;;;1.23;;
15488;SDS011;7846;48.830;9.116;2022-08-24T15:29:29;1.10;;;1.00;;
15488;SDS011;7846;48.830;9.116;2022-08-24T15:35:01;1.00;;;1.00;;
15488;SDS011;7846;48.830;9.116;2022-08-24T15:37:26;1.23;;;1.10;;
15488;SDS011;7846;48.830;9.116;2022-08-24T15:39:54;1.10;;;1.10;;
15488;SDS011;7846;48.830;9.116;2022-08-24T15:42:19;1.53;;;1.10;;
15488;SDS011;7846;48.830;9.116;2022-08-24T15:44:46;1.10;;;1.10;;
15488;SDS011;7846;48.830;9.116;2022-08-24T15:47:35;1.10;;;1.10;;
15488;SDS011;7846;48.830;9.116;2022-08-24T15:50:04;1.00;;;1.00;;
15488;SDS011;7846;48.830;9.116;2022-08-24T15:52:41;1.13;;;1.13;;
15488;SDS011;7846;48.830;9.116;2022-08-24T15:55:29;1.20;;;1.10;;
15488;SDS011;7846;48.830;9.116;2022-08-24T15:58:18;1.30;;;1.20;;
15488;SDS011;7846;48.830;9.116;2022-08-24T16:00:45;1.87;;;1.10;;
15488;SDS011;7846;48.830;9.116;2022-08-24T16:03:43;2.53;;;1.30;;
15488;SDS011;7846;48.830;9.116;2022-08-24T16:11:40;1.20;;;1.10;;
15488;SDS011;7846;48.830;9.116;2022-08-24T16:16:55;1.33;;;1.20;;
15488;SDS011;7846;48.830;9.116;2022-08-24T16:19:23;1.40;;;1.30;;
15488;SDS011;7846;48.830;9.116;2022-08-24T16:24:36;1.33;;;1.10;;
15488;SDS011;7846;48.830;9.116;2022-08-24T16:27:15;1.23;;;1.20;;
15488;SDS011;7846;48.830;9.116;2022-08-24T16:29:49;1.60;;;1.17;;
15488;SDS011;7846;48.830;9.116;2022-08-24T16:32:18;2.27;;;0.97;;
15488;SDS011;7846;48.830;9.116;2022-08-24T16:34:51;1.37;;;1.20;;
15488;SDS011;7846;48.830;9.116;2022-08-24T16:37:19;1.50;;;1.03;;
15488;SDS011;7846;48.830;9.116;2022-08-24T16:39:46;1.67;;;1.20;;
15488;SDS011;7846;48.830;9.116;2022-08-24T16:42:23;1.20;;;1.10;;
15488;SDS011;7846;48.830;9.116;2022-08-24T16:44:51;1.97;;;1.27;;
15488;SDS011;7846;48.830;9.116;2022-08-24T16:47:18;2.70;;;1.20;;
15488;SDS011;7846;48.830;9.116;2022-08-24T16:49:45;1.83;;;1.30;;
15488;SDS011;7846;48.830;9.116;2022-08-24T16:52:10;2.23;;;1.57;;
15488;SDS011;7846;48.830;9.116;2022-08-24T16:54:36;2.67;;;1.50;;
15488;SDS011;7846;48.830;9.116;2022-08-24T16:57:05;1.40;;;1.30;;
15488;SDS011;7846;48.830;9.116;2022-08-24T16:59:40;2.40;;;1.30;;
15488;SDS011;7846;48.830;9.116;2022-08-24T17:02:07;1.37;;;1.30;;
15488;SDS011;7846;48.830;9.116;2022-08-24T17:04:38;2.40;;;1.07;;
15488;SDS011;7846;48.830;9.116;2022-08-24T17:07:04;1.20;;;1.20;;
15488;SDS011;7846;48.830;9.116;2022-08-24T17:09:31;1.67;;;1.17;;
15488;SDS011;7846;48.830;9.116;2022-08-24T17:12:04;1.73;;;1.30;;
15488;SDS011;7846;48.830;9.116;2022-08-24T17:14:31;1.30;;;1.20;;
15488;SDS011;7846;48.830;9.116;2022-08-24T17:16:57;1.30;;;1.20;;
15488;SDS011;7846;48.830;9.116;2022-08-24T17:19:23;1.23;;;1.20;;
15488;SDS011;7846;48.830;9.116;2022-08-24T17:21:51;2.13;;;1.20;;
15488;SDS011;7846;48.830;9.116;2022-08-24T17:24:18;1.30;;;1.10;;
15488;SDS011;7846;48.830;9.116;2022-08-24T17:26:45;1.30;;;1.20;;
15488;SDS011;7846;48.830;9.116;2022-08-24T17:29:11;1.23;;;1.10;;
15488;SDS011;7846;48.830;9.116;2022-08-24T17:31:39;2.37;;;1.30;;
15488;SDS011;7846;48.830;9.116;2022-08-24T17:34:05;2.23;;;1.20;;
15488;SDS011;7846;48.830;9.116;2022-08-24T17:36:32;1.20;;;1.10;;
15488;SDS011;7846;48.830;9.116;2022-08-24T17:38:57;1.60;;;1.03;;
15488;SDS011;7846;48.830;9.116;2022-08-24T17:41:24;1.27;;;1.17;;
15488;SDS011;7846;48.830;9.116;2022-08-24T17:43:52;1.37;;;1.27;;
15488;SDS011;7846;48.830;9.116;2022-08-24T17:46:18;1.20;;;1.20;;
15488;SDS011;7846;48.830;9.116;2022-08-24T17:48:44;2.70;;;1.53;;
15488;SDS011;7846;48.830;9.116;2022-08-24T17:51:11;1.87;;;1.30;;
15488;SDS011;7846;48.830;9.116;2022-08-24T17:53:36;2.40;;;1.57;;
15488;SDS011;7846;48.830;9.116;2022-08-24T17:56:06;1.40;;;1.20;;
15488;SDS011;7846;48.830;9.116;2022-08-24T17:58:32;2.40;;;1.30;;
15488;SDS011;7846;48.830;9.116;2022-08-24T18:01:18;3.00;;;1.40;;
15488;SDS011;7846;48.830;9.116;2022-08-24T18:03:44;3.53;;;1.50;;
15488;SDS011;7846;48.830;9.116;2022-08-24T18:06:09;1.40;;;1.30;;
15488;SDS011;7846;48.830;9.116;2022-08-24T18:08:35;1.70;;;1.40;;
15488;SDS011;7846;48.830;9.116;2022-08-24T18:11:00;1.40;;;1.30;;
15488;SDS011;7846;48.830;9.116;2022-08-24T18:13:27;1.30;;;1.30;;
15488;SDS011;7846;48.830;9.116;2022-08-24T18:15:52;1.40;;;1.30;;
15488;SDS011;7846;48.830;9.116;2022-08-24T18:18:17;1.70;;;1.40;;
15488;SDS011;7846;48.830;9.116;2022-08-24T18:20:43;1.80;;;1.50;;
15488;SDS011;7846;48.830;9.116;2022-08-24T18:23:08;1.60;;;1.50;;
15488;SDS011;7846;48.830;9.116;2022-08-24T18:25:35;2.73;;;1.60;;
15488;SDS011;7846;48.830;9.116;2022-08-24T18:28:07;1.60;;;1.50;;
15488;SDS011;7846;48.830;9.116;2022-08-24T18:30:32;4.20;;;1.60;;
15488;SDS011;7846;48.830;9.116;2022-08-24T18:32:58;2.97;;;1.60;;
15488;SDS011;7846;48.830;9.116;2022-08-24T18:35:26;1.80;;;1.70;;
15488;SDS011;7846;48.830;9.116;2022-08-24T18:37:52;2.40;;;1.60;;
15488;SDS011;7846;48.830;9.116;2022-08-24T18:40:18;1.70;;;1.60;;
15488;SDS011;7846;48.830;9.116;2022-08-24T18:42:43;1.93;;;1.80;;
15488;SDS011;7846;48.830;9.116;2022-08-24T18:45:10;1.77;;;1.67;;
15488;SDS011;7846;48.830;9.116;2022-08-24T18:47:36;3.10;;;1.67;;
15488;SDS011;7846;48.830;9.116;2022-08-24T18:50:03;2.50;;;1.77;;
15488;SDS011;7846;48.830;9.116;2022-08-24T18:52:30;2.90;;;1.60;;
15488;SDS011;7846;48.830;9.116;2022-08-24T18:54:55;1.60;;;1.50;;
15488;SDS011;7846;48.830;9.116;2022-08-24T18:57:21;1.70;;;1.60;;
15488;SDS011;7846;48.830;9.116;2022-08-24T18:59:46;2.67;;;1.70;;
15488;SDS011;7846;48.830;9.116;2022-08-24T19:02:19;1.90;;;1.80;;
15488;SDS011;7846;48.830;9.116;2022-08-24T19:05:07;2.77;;;1.47;;